Terminal Aerodrome Forecast
Issued by NWS Grand Forks, ND

Home | Current Version | Previous Version | Text Only | Print | Product List | Glossary Off
Versions: 1 2 3 4 5 6 7 8 9 10 11 12 13 14 15 16 17 18 19 20 21 22 23 24 25 26 27 28 29 30 31 32
000 FTUS43 KFGF 260301 AAB TAFGFK TAF AMD KGFK 260301Z 2603/2624 16012KT P6SM OVC020 TEMPO 2603/2605 4SM -TSRA BR OVC015CB FM260700 17009KT P6SM VCSH OVC015 FM260900 19006KT P6SM OVC030 FM261300 27006KT P6SM BKN019 FM262000 32012KT P6SM VCSH BKN035=

USA.gov is the U.S. government's official web portal to all federal, state and local government web resources and services.